KMKS

Berkeley County Airport

Moncks Corner, South Carolina, USA
METAR KMKS 230835Z AUTO 20003KT 7SM CLR 20/19 A3006 RMK AO2
Observed Flight Rules
May-23 @ 08:35 UTC (15 minutes ago) Visual Flight Rules
Wind Visibility Clouds
200° at 3 knots 7 miles
  • Clear skies
Temperatures Readings
Current 20°C / 68°F
Dewpoint 19°C / 66°F
Humidity 94%
Altimeter 30.06" Hg
Pressure 1018 hPa
Elevation 23
METAR KMKS 230835Z AUTO 20003KT 7SM CLR 20/19 A3006 RMK AO2
Observed Flight Rules
May-23 @ 08:35 UTC
(15 minutes ago)
VFR
Wind Visibility
200° at 3 knots 7 miles
Clouds
  • Clear skies
Temperature Dewpoint
20°C / 68°F 19°C / 66°F
Humidity Altimeter Pressure
94% 30.06" Hg 1018 hPa